createdAt,value
2022-07-26T00:01:25.910Z,3.30
2022-07-26T00:04:00.739Z,3.13
2022-07-26T00:06:29.743Z,3.23
2022-07-26T00:08:58.153Z,3.00
2022-07-26T00:11:29.034Z,2.90
2022-07-26T00:13:57.816Z,3.23
2022-07-26T00:16:26.561Z,3.17
2022-07-26T00:18:55.361Z,2.93
2022-07-26T00:21:23.837Z,3.13
2022-07-26T00:23:52.612Z,2.87
2022-07-26T00:26:21.276Z,2.83
2022-07-26T00:28:51.070Z,3.07
2022-07-26T00:31:19.654Z,2.90
2022-07-26T00:33:48.378Z,3.00
2022-07-26T00:36:16.841Z,3.20
2022-07-26T00:38:45.245Z,2.93
2022-07-26T00:41:14.082Z,2.67
2022-07-26T00:43:56.221Z,2.83
2022-07-26T00:46:24.937Z,2.77
2022-07-26T00:48:53.653Z,3.13
2022-07-26T00:51:22.513Z,2.60
2022-07-26T00:53:51.937Z,2.90
2022-07-26T00:56:20.740Z,2.97
2022-07-26T00:58:49.212Z,2.93
2022-07-26T01:01:19.280Z,2.90
2022-07-26T01:03:48.304Z,2.97
2022-07-26T01:06:16.778Z,3.27
2022-07-26T01:08:45.458Z,2.50
2022-07-26T01:11:14.051Z,2.97
2022-07-26T01:13:47.786Z,2.90
2022-07-26T01:16:16.364Z,2.90
2022-07-26T01:18:46.274Z,2.77
2022-07-26T01:21:14.899Z,2.60
2022-07-26T01:23:45.057Z,2.83
2022-07-26T01:26:13.955Z,3.10
2022-07-26T01:28:44.994Z,2.90
2022-07-26T01:31:14.003Z,3.10
2022-07-26T01:33:42.575Z,2.80
2022-07-26T01:36:12.757Z,2.83
2022-07-26T01:38:41.532Z,3.20
2022-07-26T01:41:11.660Z,2.73
2022-07-26T01:43:40.374Z,2.90
2022-07-26T01:46:09.709Z,2.80
2022-07-26T01:48:38.674Z,2.80
2022-07-26T01:51:07.458Z,2.93
2022-07-26T01:53:36.121Z,2.83
2022-07-26T01:56:04.587Z,3.00
2022-07-26T01:58:34.572Z,2.97
2022-07-26T02:01:03.159Z,2.70
2022-07-26T02:03:31.547Z,2.83
2022-07-26T02:06:00.097Z,2.90
2022-07-26T02:08:28.824Z,2.77
2022-07-26T02:11:04.041Z,2.90
2022-07-26T02:13:35.224Z,2.77
2022-07-26T02:16:03.952Z,3.27
2022-07-26T02:18:32.658Z,3.37
2022-07-26T02:21:02.244Z,2.67
2022-07-26T02:23:30.860Z,2.63
2022-07-26T02:25:59.499Z,2.50
2022-07-26T02:28:28.922Z,2.90
2022-07-26T02:30:58.796Z,3.40
2022-07-26T02:33:27.490Z,3.73
2022-07-26T02:35:56.133Z,2.73
2022-07-26T02:38:25.069Z,3.13
2022-07-26T02:40:53.972Z,2.73
2022-07-26T02:43:22.428Z,2.67
2022-07-26T02:46:01.237Z,2.83
2022-07-26T02:48:32.548Z,2.70
2022-07-26T02:51:01.117Z,3.20
2022-07-26T02:53:29.788Z,2.80
2022-07-26T02:55:58.394Z,2.70
2022-07-26T02:58:27.328Z,2.67
2022-07-26T03:00:56.172Z,3.00
2022-07-26T03:03:24.700Z,2.93
2022-07-26T03:05:54.557Z,2.83
2022-07-26T03:08:23.161Z,3.17
2022-07-26T03:10:51.865Z,2.90
2022-07-26T03:13:20.362Z,3.83
2022-07-26T03:15:48.958Z,3.20
2022-07-26T03:18:17.585Z,2.90
2022-07-26T03:20:45.975Z,3.43
2022-07-26T03:23:15.920Z,2.90
2022-07-26T03:25:44.556Z,2.97
2022-07-26T03:28:18.934Z,2.70
2022-07-26T03:30:48.225Z,3.03
2022-07-26T03:33:16.742Z,2.83
2022-07-26T03:35:45.175Z,2.93
2022-07-26T03:38:13.979Z,2.97
2022-07-26T03:40:43.985Z,2.73
2022-07-26T03:43:12.461Z,2.80
2022-07-26T03:45:41.168Z,2.40
2022-07-26T03:48:09.731Z,2.50
2022-07-26T03:50:38.301Z,2.67
2022-07-26T03:53:07.073Z,2.63
2022-07-26T03:55:53.244Z,2.70
2022-07-26T03:58:23.216Z,3.53
2022-07-26T04:00:51.862Z,2.93
2022-07-26T04:03:22.677Z,2.60
2022-07-26T04:05:52.698Z,2.30
2022-07-26T04:08:21.440Z,2.93
2022-07-26T04:10:51.365Z,2.60
2022-07-26T04:13:20.101Z,2.47
2022-07-26T04:15:49.881Z,2.60
2022-07-26T04:18:18.529Z,2.63
2022-07-26T04:20:47.350Z,2.60
2022-07-26T04:23:16.441Z,2.77
2022-07-26T04:25:45.077Z,2.13
2022-07-26T04:28:13.994Z,2.43
2022-07-26T04:30:42.799Z,2.30
2022-07-26T04:33:12.837Z,2.20
2022-07-26T04:35:41.867Z,2.23
2022-07-26T04:38:10.273Z,2.00
2022-07-26T04:40:40.865Z,2.00
2022-07-26T04:43:10.032Z,1.80
2022-07-26T04:45:44.490Z,1.97
2022-07-26T04:48:14.490Z,1.60
2022-07-26T04:50:42.975Z,1.70
2022-07-26T04:53:11.964Z,1.50
2022-07-26T04:55:40.629Z,1.70
2022-07-26T04:58:09.084Z,1.30
2022-07-26T05:01:02.619Z,1.47
2022-07-26T05:03:27.983Z,1.57
2022-07-26T05:05:56.563Z,1.13
2022-07-26T05:08:24.998Z,1.17
2022-07-26T05:10:55.863Z,1.23
2022-07-26T05:13:30.318Z,1.33
2022-07-26T05:15:59.823Z,1.27
2022-07-26T05:18:31.553Z,1.20
2022-07-26T05:21:00.663Z,1.50
2022-07-26T05:23:29.103Z,1.10
2022-07-26T05:25:57.807Z,1.20
2022-07-26T05:28:26.364Z,1.10
2022-07-26T05:30:54.763Z,1.63
2022-07-26T05:33:23.487Z,1.30
2022-07-26T05:35:53.364Z,1.20
2022-07-26T05:38:21.889Z,1.17
2022-07-26T05:40:51.020Z,1.10
2022-07-26T05:43:19.987Z,1.23
2022-07-26T05:45:48.424Z,1.20
2022-07-26T05:48:16.850Z,0.93
2022-07-26T05:50:46.563Z,1.27
2022-07-26T05:53:16.355Z,1.20
2022-07-26T05:55:44.708Z,1.00
2022-07-26T05:58:13.462Z,1.40
2022-07-26T06:00:45.412Z,1.70
2022-07-26T06:03:23.308Z,1.20
2022-07-26T06:05:52.247Z,1.17
2022-07-26T06:08:22.778Z,1.20
2022-07-26T06:10:52.005Z,1.33
2022-07-26T06:13:20.469Z,1.40
2022-07-26T06:15:49.451Z,1.27
2022-07-26T06:18:18.062Z,1.10
2022-07-26T06:20:47.815Z,1.10
2022-07-26T06:23:16.800Z,1.30
2022-07-26T06:25:46.779Z,1.43
2022-07-26T06:28:15.217Z,1.20
2022-07-26T06:30:45.171Z,1.30
2022-07-26T06:33:13.747Z,1.43
2022-07-26T06:35:42.288Z,1.20
2022-07-26T06:38:11.037Z,1.20
2022-07-26T06:40:39.492Z,1.30
2022-07-26T06:43:09.318Z,1.30
2022-07-26T06:45:37.968Z,1.43
2022-07-26T06:48:06.575Z,1.20
2022-07-26T06:50:35.097Z,1.10
2022-07-26T06:53:03.833Z,1.07
2022-07-26T06:55:32.602Z,0.90
2022-07-26T06:58:01.054Z,1.20
2022-07-26T07:00:31.304Z,1.10
2022-07-26T07:02:59.849Z,1.10
2022-07-26T07:05:31.217Z,1.30
2022-07-26T07:07:59.977Z,1.10
2022-07-26T07:10:28.610Z,1.33
2022-07-26T07:12:57.947Z,1.13
2022-07-26T07:15:26.640Z,1.20
2022-07-26T07:17:56.528Z,1.10
2022-07-26T07:20:25.146Z,1.00
2022-07-26T07:22:53.673Z,1.10
2022-07-26T07:25:30.401Z,1.50
2022-07-26T07:28:00.150Z,0.90
2022-07-26T07:30:29.042Z,1.13
2022-07-26T07:32:58.828Z,1.60
2022-07-26T07:35:31.802Z,1.20
2022-07-26T07:38:00.802Z,1.40
2022-07-26T07:40:30.786Z,1.27
2022-07-26T07:42:59.484Z,1.10
2022-07-26T07:45:28.118Z,1.10
2022-07-26T07:47:56.563Z,1.20
2022-07-26T07:50:28.263Z,1.63
2022-07-26T07:52:58.048Z,0.90
2022-07-26T07:55:46.261Z,0.90
2022-07-26T07:58:17.446Z,1.00
2022-07-26T08:00:48.135Z,0.90
2022-07-26T08:03:18.720Z,0.67
2022-07-26T08:05:50.659Z,0.70
2022-07-26T08:08:22.609Z,0.80
2022-07-26T08:10:52.983Z,0.80
2022-07-26T08:13:22.205Z,0.90
2022-07-26T08:15:50.974Z,0.77
2022-07-26T08:18:21.694Z,1.00
2022-07-26T08:20:53.333Z,0.80
2022-07-26T08:23:21.919Z,0.70
2022-07-26T08:25:56.670Z,0.63
2022-07-26T08:28:46.224Z,0.60
2022-07-26T08:31:14.471Z,0.77
2022-07-26T08:33:46.596Z,0.70
2022-07-26T08:36:17.058Z,0.77
2022-07-26T08:38:48.118Z,0.60
2022-07-26T08:41:17.197Z,0.60
2022-07-26T08:43:51.747Z,0.50
2022-07-26T08:46:25.468Z,0.60
2022-07-26T08:48:54.821Z,0.57
2022-07-26T08:51:25.391Z,0.53
2022-07-26T08:54:00.611Z,0.50
2022-07-26T08:56:33.275Z,0.70
2022-07-26T08:59:04.230Z,0.70
2022-07-26T09:01:32.672Z,0.80
2022-07-26T09:04:30.971Z,0.60
2022-07-26T09:07:02.671Z,0.70
2022-07-26T09:09:31.409Z,0.70
2022-07-26T09:11:59.887Z,0.50
2022-07-26T09:14:38.571Z,0.57
2022-07-26T09:17:07.238Z,0.50
2022-07-26T09:19:36.838Z,0.77
2022-07-26T09:22:10.856Z,0.77
2022-07-26T09:24:41.167Z,0.90
2022-07-26T09:27:10.724Z,0.57
2022-07-26T09:29:49.817Z,0.77
2022-07-26T09:32:19.173Z,1.10
2022-07-26T09:34:53.014Z,0.50
2022-07-26T09:37:35.911Z,0.80
2022-07-26T09:40:05.798Z,0.53
2022-07-26T09:42:34.427Z,0.50
2022-07-26T09:45:03.381Z,0.50
2022-07-26T09:47:39.310Z,0.40
2022-07-26T09:50:12.127Z,0.30
2022-07-26T09:52:42.208Z,0.50
2022-07-26T09:55:13.360Z,0.37
2022-07-26T09:57:41.994Z,0.30
2022-07-26T10:00:11.062Z,0.40
2022-07-26T10:02:39.989Z,0.40
2022-07-26T10:05:08.765Z,0.40
2022-07-26T10:07:37.292Z,0.37
2022-07-26T10:10:09.387Z,0.40
2022-07-26T10:12:37.930Z,0.50
2022-07-26T10:15:06.804Z,0.43
2022-07-26T10:17:42.856Z,0.50
2022-07-26T10:20:17.271Z,0.50
2022-07-26T10:22:52.929Z,0.43
2022-07-26T10:25:39.686Z,0.70
2022-07-26T10:28:25.075Z,0.47
2022-07-26T10:30:53.611Z,0.60
2022-07-26T10:33:24.946Z,0.40
2022-07-26T10:35:53.601Z,0.40
2022-07-26T10:38:25.968Z,0.57
2022-07-26T10:40:58.063Z,0.63
2022-07-26T10:43:44.236Z,0.43
2022-07-26T10:46:28.409Z,0.60
2022-07-26T10:48:57.545Z,0.60
2022-07-26T10:51:27.799Z,0.30
2022-07-26T10:54:02.268Z,0.57
2022-07-26T10:56:33.481Z,0.60
2022-07-26T10:59:03.776Z,0.70
2022-07-26T11:01:35.799Z,0.67
2022-07-26T11:04:04.828Z,0.70
2022-07-26T11:06:34.201Z,0.70
2022-07-26T11:09:11.760Z,0.90
2022-07-26T11:11:46.786Z,0.90
2022-07-26T11:14:18.534Z,1.07
2022-07-26T11:16:48.538Z,0.90
2022-07-26T11:19:17.755Z,1.20
2022-07-26T11:21:46.578Z,0.90
2022-07-26T11:24:15.382Z,0.90
2022-07-26T11:26:44.626Z,0.90
2022-07-26T11:29:17.069Z,0.73
2022-07-26T11:31:51.457Z,0.80
2022-07-26T11:34:29.407Z,0.70
2022-07-26T11:36:58.791Z,0.70
2022-07-26T11:39:28.010Z,0.87
2022-07-26T11:41:59.383Z,0.90
2022-07-26T11:44:28.164Z,0.73
2022-07-26T11:46:58.795Z,0.80
2022-07-26T11:49:52.169Z,0.70
2022-07-26T11:52:25.321Z,1.40
2022-07-26T11:54:55.681Z,0.60
2022-07-26T11:57:29.346Z,0.77
2022-07-26T11:59:58.036Z,0.80
2022-07-26T12:02:28.003Z,0.70
2022-07-26T12:05:14.581Z,0.50
2022-07-26T12:07:54.332Z,0.63
2022-07-26T12:10:23.002Z,0.60
2022-07-26T12:12:51.595Z,0.70
2022-07-26T12:15:20.055Z,0.50
2022-07-26T12:18:02.233Z,0.67
2022-07-26T12:20:30.706Z,0.57
2022-07-26T12:23:00.615Z,0.50
2022-07-26T12:25:29.752Z,0.70
2022-07-26T12:27:58.445Z,0.50
2022-07-26T12:30:30.752Z,0.40
2022-07-26T12:33:03.158Z,0.57
2022-07-26T12:35:35.693Z,0.50
2022-07-26T12:38:04.785Z,0.30
2022-07-26T12:40:41.588Z,0.50
2022-07-26T12:43:10.160Z,0.50
2022-07-26T12:45:39.142Z,0.43
2022-07-26T12:48:10.189Z,0.50
2022-07-26T12:50:40.143Z,0.17
2022-07-26T12:53:12.607Z,0.30
2022-07-26T12:55:41.861Z,0.30
2022-07-26T12:58:10.298Z,0.60
2022-07-26T13:00:38.726Z,0.33
2022-07-26T13:03:07.557Z,0.40
2022-07-26T13:05:35.917Z,0.20
2022-07-26T13:08:05.819Z,0.23
2022-07-26T13:10:36.025Z,0.20
2022-07-26T13:13:05.345Z,0.20
2022-07-26T13:15:36.459Z,0.10
2022-07-26T13:18:06.409Z,0.00
2022-07-26T13:20:34.771Z,0.10
2022-07-26T13:23:03.880Z,0.10
2022-07-26T13:25:38.499Z,0.10
2022-07-26T13:28:09.019Z,0.00
2022-07-26T13:30:39.316Z,0.10
2022-07-26T13:33:08.489Z,0.00
2022-07-26T13:35:38.915Z,0.00
2022-07-26T13:38:07.625Z,0.10
2022-07-26T13:40:37.493Z,0.00
2022-07-26T13:43:06.572Z,0.00
2022-07-26T13:45:35.139Z,0.20
2022-07-26T13:48:03.596Z,0.13
2022-07-26T13:50:32.033Z,0.00
2022-07-26T13:53:00.613Z,0.10
2022-07-26T13:55:29.176Z,0.10
2022-07-26T13:57:58.977Z,0.30
2022-07-26T14:00:27.675Z,0.10
2022-07-26T14:02:56.453Z,0.00
2022-07-26T14:05:24.968Z,0.08
2022-07-26T14:07:53.735Z,0.13
2022-07-26T14:10:22.678Z,0.10
2022-07-26T14:12:51.158Z,0.10
2022-07-26T14:15:22.935Z,0.10
2022-07-26T14:17:52.371Z,0.10
2022-07-26T14:20:21.308Z,0.03
2022-07-26T14:22:53.589Z,0.30
2022-07-26T14:25:22.483Z,0.10
2022-07-26T14:27:51.273Z,0.00
2022-07-26T14:30:21.511Z,0.10
2022-07-26T14:32:50.478Z,0.13
2022-07-26T14:35:18.898Z,0.10
2022-07-26T14:37:47.443Z,0.20
2022-07-26T14:40:16.686Z,0.10
2022-07-26T14:42:45.601Z,0.00
2022-07-26T14:45:14.444Z,0.10
2022-07-26T14:47:44.379Z,0.10
2022-07-26T14:50:13.723Z,0.00
2022-07-26T14:52:43.467Z,0.10
2022-07-26T14:55:12.422Z,0.00
2022-07-26T14:57:41.065Z,0.00
2022-07-26T15:00:10.853Z,0.03
2022-07-26T15:02:40.120Z,0.00
2022-07-26T15:05:10.439Z,0.10
2022-07-26T15:07:39.014Z,0.00
2022-07-26T15:10:09.259Z,0.08
2022-07-26T15:12:38.158Z,0.00
2022-07-26T15:15:07.267Z,0.20
2022-07-26T15:17:36.218Z,0.00
2022-07-26T15:20:05.350Z,0.20
2022-07-26T15:22:35.264Z,0.32
2022-07-26T15:25:03.777Z,0.20
2022-07-26T15:27:32.206Z,0.00
2022-07-26T15:30:04.999Z,0.10
2022-07-26T15:32:36.872Z,0.00
2022-07-26T15:35:05.864Z,0.10
2022-07-26T15:37:35.839Z,0.00
2022-07-26T15:40:04.308Z,0.10
2022-07-26T15:42:33.356Z,0.08
2022-07-26T15:45:02.640Z,0.10
2022-07-26T15:48:00.923Z,0.10
2022-07-26T15:50:27.592Z,0.07
2022-07-26T15:52:57.681Z,0.00
2022-07-26T15:55:26.151Z,0.10
2022-07-26T15:57:55.121Z,0.10
2022-07-26T16:00:23.697Z,0.10
2022-07-26T16:02:52.259Z,0.10
2022-07-26T16:05:20.685Z,0.00
2022-07-26T16:07:51.635Z,0.10
2022-07-26T16:10:21.462Z,0.10
2022-07-26T16:12:49.896Z,0.10
2022-07-26T16:15:19.261Z,0.00
2022-07-26T16:17:47.649Z,0.10
2022-07-26T16:20:19.419Z,0.00
2022-07-26T16:22:48.306Z,0.10
2022-07-26T16:25:16.699Z,0.10
2022-07-26T16:27:46.539Z,0.10
2022-07-26T16:30:16.199Z,0.17
2022-07-26T16:32:45.548Z,0.00
2022-07-26T16:35:14.282Z,0.10
2022-07-26T16:37:42.937Z,0.10
2022-07-26T16:40:11.882Z,0.10
2022-07-26T16:42:40.253Z,0.10
2022-07-26T16:45:10.621Z,0.10
2022-07-26T16:47:39.042Z,0.00
2022-07-26T16:50:08.294Z,0.10
2022-07-26T16:52:37.139Z,0.20
2022-07-26T16:55:10.658Z,0.20
2022-07-26T16:57:39.798Z,0.10
2022-07-26T17:00:11.290Z,0.20
2022-07-26T17:02:40.332Z,0.10
2022-07-26T17:05:09.573Z,0.10
2022-07-26T17:07:38.137Z,0.00
2022-07-26T17:10:07.561Z,0.10
2022-07-26T17:12:36.095Z,0.20
2022-07-26T17:15:04.528Z,0.10
2022-07-26T17:17:34.703Z,0.00
2022-07-26T17:20:03.355Z,0.10
2022-07-26T17:22:31.822Z,0.20
2022-07-26T17:25:00.720Z,0.20
2022-07-26T17:27:29.184Z,0.13
2022-07-26T17:29:57.585Z,0.40
2022-07-26T17:32:26.383Z,0.10
2022-07-26T17:34:56.137Z,0.20
2022-07-26T17:37:24.749Z,0.10
2022-07-26T17:39:54.097Z,0.10
2022-07-26T17:42:22.920Z,0.20
2022-07-26T17:44:51.559Z,0.10
2022-07-26T17:47:29.384Z,0.10
2022-07-26T17:52:50.217Z,0.30
2022-07-26T17:55:19.634Z,0.30
2022-07-26T17:57:48.483Z,0.20
2022-07-26T18:00:19.358Z,0.20
2022-07-26T18:02:48.463Z,0.10
2022-07-26T18:05:19.615Z,0.10
2022-07-26T18:07:48.468Z,0.30
2022-07-26T18:10:16.903Z,0.20
2022-07-26T18:12:45.251Z,0.10
2022-07-26T18:15:13.770Z,0.63
2022-07-26T18:17:42.156Z,0.17
2022-07-26T18:20:11.139Z,0.20
2022-07-26T18:22:41.413Z,0.30
2022-07-26T18:25:14.153Z,0.10
2022-07-26T18:27:42.646Z,0.38
2022-07-26T18:30:11.340Z,0.20
2022-07-26T18:32:40.020Z,0.28
2022-07-26T18:35:08.838Z,0.30
2022-07-26T18:37:37.185Z,0.30
2022-07-26T18:40:07.999Z,0.30
2022-07-26T18:42:37.973Z,0.20
2022-07-26T18:45:06.765Z,0.30
2022-07-26T18:47:35.169Z,0.27
2022-07-26T18:50:03.827Z,0.40
2022-07-26T18:52:32.851Z,0.20
2022-07-26T18:55:02.630Z,0.33
2022-07-26T18:57:32.545Z,0.37
2022-07-26T19:00:01.108Z,0.20
2022-07-26T19:02:29.511Z,0.63
2022-07-26T19:04:58.028Z,0.10
2022-07-26T19:07:26.620Z,0.23
2022-07-26T19:09:58.404Z,0.60
2022-07-26T19:12:27.767Z,0.30
2022-07-26T19:14:59.897Z,0.40
2022-07-26T19:17:30.136Z,0.40
2022-07-26T19:20:00.349Z,0.40
2022-07-26T19:22:29.229Z,0.40
2022-07-26T19:24:58.100Z,0.20
2022-07-26T19:27:27.923Z,0.20
2022-07-26T19:29:58.251Z,0.17
2022-07-26T19:32:31.703Z,0.27
2022-07-26T19:35:02.125Z,0.40
2022-07-26T19:37:30.657Z,0.30
2022-07-26T19:40:00.482Z,0.40
2022-07-26T19:42:31.047Z,0.30
2022-07-26T19:45:01.146Z,0.40
2022-07-26T19:47:30.232Z,0.20
2022-07-26T19:49:58.940Z,0.30
2022-07-26T19:52:27.618Z,0.43
2022-07-26T19:54:56.259Z,0.30
2022-07-26T19:57:24.972Z,0.30
2022-07-26T19:59:54.466Z,0.20
2022-07-26T20:02:24.458Z,0.33
2022-07-26T20:04:52.843Z,0.60
2022-07-26T20:07:21.477Z,0.30
2022-07-26T20:09:50.152Z,0.40
2022-07-26T20:12:19.209Z,0.27
2022-07-26T20:14:47.771Z,0.40
2022-07-26T20:17:16.516Z,0.40
2022-07-26T20:19:46.340Z,0.30
2022-07-26T20:22:14.886Z,0.40
2022-07-26T20:24:43.467Z,0.33
2022-07-26T20:27:11.865Z,0.40
2022-07-26T20:29:40.415Z,0.20
2022-07-26T20:32:09.114Z,0.30
2022-07-26T20:34:37.543Z,0.30
2022-07-26T20:37:07.441Z,0.33
2022-07-26T20:39:36.079Z,0.30
2022-07-26T20:42:04.464Z,0.43
2022-07-26T20:44:33.114Z,0.40
2022-07-26T20:47:03.128Z,0.47
2022-07-26T20:49:31.688Z,0.40
2022-07-26T20:52:00.389Z,0.30
2022-07-26T20:54:31.067Z,0.37
2022-07-26T20:56:59.509Z,0.60
2022-07-26T20:59:35.157Z,0.40
2022-07-26T21:02:03.698Z,0.27
2022-07-26T21:04:32.400Z,0.50
2022-07-26T21:07:01.431Z,0.50
2022-07-26T21:09:31.155Z,0.40
2022-07-26T21:11:59.601Z,0.23
2022-07-26T21:14:28.605Z,0.37
2022-07-26T21:16:57.017Z,0.40
2022-07-26T21:19:25.493Z,0.50
2022-07-26T21:21:54.964Z,0.50
2022-07-26T21:24:23.354Z,0.60
2022-07-26T21:26:55.352Z,0.60
2022-07-26T21:29:23.840Z,0.63
2022-07-26T21:31:52.301Z,0.37
2022-07-26T21:34:21.392Z,0.40
2022-07-26T21:36:49.862Z,0.53
2022-07-26T21:39:18.253Z,0.60
2022-07-26T21:41:47.062Z,0.33
2022-07-26T21:44:16.918Z,0.40
2022-07-26T21:46:45.400Z,0.40
2022-07-26T21:49:14.643Z,0.83
2022-07-26T21:51:43.465Z,0.30
2022-07-26T21:54:11.852Z,0.40
2022-07-26T21:56:40.643Z,0.80
2022-07-26T21:59:09.473Z,0.50
2022-07-26T22:01:39.660Z,0.60
2022-07-26T22:04:08.325Z,0.50
2022-07-26T22:06:36.769Z,1.00
2022-07-26T22:09:05.308Z,0.60
2022-07-26T22:11:34.035Z,0.70
2022-07-26T22:14:02.426Z,0.53
2022-07-26T22:16:31.639Z,0.57
2022-07-26T22:19:02.429Z,0.40
2022-07-26T22:21:31.070Z,0.43
2022-07-26T22:23:59.481Z,0.40
2022-07-26T22:26:31.333Z,0.50
2022-07-26T22:29:00.477Z,0.63
2022-07-26T22:31:29.047Z,0.50
2022-07-26T22:33:57.669Z,0.50
2022-07-26T22:36:27.604Z,0.60
2022-07-26T22:38:56.041Z,0.47
2022-07-26T22:41:24.487Z,0.40
2022-07-26T22:43:53.360Z,0.40
2022-07-26T22:46:27.486Z,0.43
2022-07-26T22:48:58.137Z,0.40
2022-07-26T22:51:27.969Z,0.40
2022-07-26T22:53:56.392Z,0.47
2022-07-26T22:56:25.134Z,0.50
2022-07-26T22:58:53.575Z,0.40
2022-07-26T23:01:22.021Z,0.50
2022-07-26T23:03:50.947Z,0.40
2022-07-26T23:06:31.403Z,0.57
2022-07-26T23:09:02.336Z,0.10
2022-07-26T23:11:31.719Z,0.43
2022-07-26T23:14:00.307Z,0.50
2022-07-26T23:16:30.477Z,0.40
2022-07-26T23:18:58.876Z,0.37
2022-07-26T23:21:27.798Z,0.40
2022-07-26T23:23:56.527Z,0.37
2022-07-26T23:26:26.342Z,0.67
2022-07-26T23:28:54.729Z,0.30
2022-07-26T23:31:23.490Z,0.37
2022-07-26T23:33:54.712Z,0.40
2022-07-26T23:36:26.767Z,0.53
2022-07-26T23:38:55.498Z,0.20
2022-07-26T23:41:23.858Z,0.40
2022-07-26T23:43:54.455Z,0.30
2022-07-26T23:46:23.096Z,0.10
2022-07-26T23:48:51.816Z,0.30
2022-07-26T23:51:20.918Z,0.40
2022-07-26T23:53:49.690Z,0.30
2022-07-26T23:56:18.495Z,0.50
2022-07-26T23:58:47.205Z,0.30
